CYDQ

Dawson Creek Airport

Dawson Creek, British Columbia, Canada
METAR CYDQ 151300Z AUTO 26019G26KT 9SM CLR 04/M03 A2971 RMK SLP090
Observed Flight Rules
Dec-15 @ 13:00 UTC (an hour ago) Visual Flight Rules
Wind Visibility Clouds
260° at 19 knots
 Gusting to 26 knots
9 miles
  • Clear skies
Temperatures Readings
Current 4°C / 39°F
Dewpoint -3°C / 27°F
Humidity 61%
Altimeter 29.71" Hg
Pressure 1009 hPa
Elevation 655
METAR CYDQ 151300Z AUTO 26019G26KT 9SM CLR 04/M03 A2971 RMK SLP090
Observed Flight Rules
Dec-15 @ 13:00 UTC
(an hour ago)
VFR
Wind Visibility
260° at 19 knots
 Gusting to 26 knots
9 miles
Clouds
  • Clear skies
Temperature Dewpoint
4°C / 39°F -3°C / 27°F
Humidity Altimeter Pressure
61% 29.71" Hg 1009 hPa